Time;durP1;ratioP1;P1;durP2;ratioP2;P2;SDS_P1;SDS_P2;PMS_P1;PMS_P2;Temp;Humidity;BMP_temperature;BMP_pressure;BME280_temperature;BME280_humidity;BME280_pressure;Samples;Min_cycle;Max_cycle;Signal;HPM_P1;HPM_P2
2021/11/21 00:00:16;;;;;;;14.90;5.22;;;;;;;9.83;82.35;101413.22;5053736;28;20024;-41
2021/11/21 00:02:41;;;;;;;14.80;5.03;;;;;;;9.84;82.79;101412.19;5052924;28;20025;-43
2021/11/21 00:05:07;;;;;;;10.73;4.90;;;;;;;9.87;82.32;101403.84;5049287;28;20310;-42
2021/11/21 00:07:33;;;;;;;7.15;4.80;;;;;;;9.88;82.23;101404.66;5054098;28;20490;-42
2021/11/21 00:09:59;;;;;;;11.57;4.78;;;;;;;9.90;83.13;101408.03;5052796;28;20039;-42
2021/11/21 00:12:24;;;;;;;14.18;5.15;;;;;;;9.88;83.65;101401.97;5053927;28;20102;-42
2021/11/21 00:14:49;;;;;;;12.13;4.72;;;;;;;9.88;83.03;101401.97;5053743;28;20116;-42
2021/11/21 00:17:15;;;;;;;10.00;4.18;;;;;;;9.92;82.99;101397.09;5053745;28;20426;-41
2021/11/21 00:19:41;;;;;;;15.75;4.72;;;;;;;9.92;83.10;101395.25;5053697;28;20430;-42
2021/11/21 00:22:08;;;;;;;17.52;4.78;;;;;;;9.94;83.75;101387.03;5040390;28;20469;-41
2021/11/21 00:24:36;;;;;;;16.43;5.23;;;;;;;9.93;83.89;101390.75;5034207;28;20029;-42
2021/11/21 00:27:01;;;;;;;;;;;;;;;9.95;83.58;101383.31;5031812;28;20045;-42
2021/11/21 00:29:26;;;;;;;13.63;4.07;;;;;;;9.95;84.82;101383.31;5033647;28;20257;-42
2021/11/21 00:31:52;;;;;;;13.57;4.20;;;;;;;9.97;84.18;101387.53;5033714;28;20386;-41
2021/11/21 00:34:17;;;;;;;14.07;3.90;;;;;;;9.99;84.81;101380.16;5032263;28;20132;-41
2021/11/21 00:36:42;;;;;;;14.93;4.38;;;;;;;10.00;85.28;101386.38;5034757;28;20027;-41
2021/11/21 00:39:08;;;;;;;17.33;4.97;;;;;;;10.00;85.65;101383.69;5053273;28;20476;-41
2021/11/21 00:41:33;;;;;;;20.92;5.40;;;;;;;9.98;86.32;101383.84;5053406;28;20116;-41
2021/11/21 00:43:58;;;;;;;17.08;4.70;;;;;;;10.00;86.64;101381.00;5051954;28;20017;-42
2021/11/21 00:46:24;;;;;;;11.80;5.07;;;;;;;10.01;87.25;101385.38;5053369;28;20456;-41
2021/11/21 00:48:50;;;;;;;21.05;4.57;;;;;;;10.01;87.34;101383.53;5053479;28;20035;-42
2021/11/21 00:51:17;;;;;;;20.85;5.47;;;;;;;9.98;87.96;101385.69;5053655;28;20025;-40
2021/11/21 00:53:44;;;;;;;18.55;6.00;;;;;;;10.00;87.78;101381.00;5039403;28;20060;-41
2021/11/21 00:56:09;;;;;;;14.10;4.70;;;;;;;9.99;87.94;101376.63;5053571;28;20033;-41
2021/11/21 00:58:36;;;;;;;18.55;4.70;;;;;;;9.97;88.07;101370.56;5036371;28;20024;-42
2021/11/21 01:01:03;;;;;;;21.00;4.53;;;;;;;9.97;88.21;101371.41;5055669;28;20571;-41
2021/11/21 01:03:29;;;;;;;15.07;5.47;;;;;;;9.94;88.38;101366.34;5054304;28;20109;-41
2021/11/21 01:05:56;;;;;;;18.75;5.32;;;;;;;9.95;88.68;101367.19;5063172;28;20419;-41
2021/11/21 01:08:22;;;;;;;14.60;5.75;;;;;;;9.93;88.82;101364.69;5047855;28;20038;-41
2021/11/21 01:10:50;;;;;;;20.80;5.93;;;;;;;9.95;88.67;101364.50;5052822;28;20119;-42
2021/11/21 01:13:15;;;;;;;;;;;;;;;9.94;89.36;101360.16;5053266;28;20496;-41
2021/11/21 01:15:41;;;;;;;26.80;6.53;;;;;;;9.91;89.41;101349.72;5052595;28;19909;-42
2021/11/21 01:18:07;;;;;;;22.70;6.60;;;;;;;9.86;90.33;101352.91;5052843;28;20032;-42
2021/11/21 01:20:34;;;;;;;26.33;6.13;;;;;;;9.81;91.09;101353.38;5052626;28;20028;-43
2021/11/21 01:22:59;;;;;;;13.73;5.43;;;;;;;9.79;91.26;101352.69;5052836;28;20025;-42
2021/11/21 01:25:26;;;;;;;17.80;6.00;;;;;;;9.75;92.08;101346.00;5039632;28;20507;-41
2021/11/21 01:27:52;;;;;;;12.55;6.00;;;;;;;9.73;92.28;101348.00;5032948;28;20033;-41
2021/11/21 01:30:20;;;;;;;20.17;6.93;;;;;;;9.72;92.50;101345.50;5032865;28;20522;-40
2021/11/21 01:32:46;;;;;;;7.72;5.30;;;;;;;9.70;92.81;101334.06;5031549;28;20032;-41
2021/11/21 01:35:13;;;;;;;12.45;5.32;;;;;;;9.68;92.46;101339.59;5032665;28;20056;-41
2021/11/21 01:37:38;;;;;;;11.45;5.90;;;;;;;9.66;92.31;101336.22;5031250;28;20029;-42
2021/11/21 01:40:06;;;;;;;20.02;6.00;;;;;;;9.65;92.68;101331.84;5031575;28;20036;-41
2021/11/21 01:42:31;;;;;;;19.02;6.45;;;;;;;9.68;92.41;101334.19;5032979;28;20060;-41
2021/11/21 01:44:57;;;;;;;13.77;7.13;;;;;;;9.67;92.93;101329.84;5032726;28;20108;-41
2021/11/21 01:47:22;;;;;;;19.15;6.68;;;;;;;9.67;92.62;101325.31;5032985;28;20469;-40
2021/11/21 01:49:47;;;;;;;16.38;7.15;;;;;;;9.67;93.06;101329.84;5032611;28;20034;-41
2021/11/21 01:52:13;;;;;;;21.98;8.60;;;;;;;9.68;92.99;101328.81;5032502;28;20472;-41
2021/11/21 01:54:38;;;;;;;20.00;8.40;;;;;;;9.66;93.26;101325.47;5039571;28;20124;-41
2021/11/21 01:57:04;;;;;;;17.75;7.55;;;;;;;9.64;93.54;101319.44;5052435;28;20040;-42
2021/11/21 01:59:30;;;;;;;20.88;8.60;;;;;;;9.64;93.69;101316.75;5051248;28;20028;-41
2021/11/21 02:01:56;;;;;;;23.55;9.40;;;;;;;9.64;93.85;101312.19;5052533;28;20078;-41
2021/11/21 02:04:21;;;;;;;14.38;9.48;;;;;;;9.66;94.19;101315.56;5052308;28;20025;-42
2021/11/21 02:06:47;;;;;;;20.65;9.27;;;;;;;9.70;94.11;101315.25;5052143;28;20063;-41
2021/11/21 02:09:12;;;;;;;18.67;9.68;;;;;;;9.69;94.21;101298.28;5052034;28;20094;-40
2021/11/21 02:11:38;;;;;;;13.77;7.88;;;;;;;9.70;94.26;101293.75;5052313;28;20021;-43
2021/11/21 02:14:04;;;;;;;20.10;8.13;;;;;;;9.67;94.75;101297.59;5051076;28;20032;-43
2021/11/21 02:16:31;;;;;;;14.40;7.10;;;;;;;9.69;94.86;101284.84;5052043;28;20056;-46
2021/11/21 02:18:57;;;;;;;9.98;6.78;;;;;;;9.70;95.12;101289.19;5052347;28;20380;-46
2021/11/21 02:21:23;;;;;;;12.52;5.90;;;;;;;9.65;95.14;101286.16;5052152;28;20045;-46
2021/11/21 02:23:49;;;;;;;15.02;6.47;;;;;;;9.65;95.38;101283.47;5033507;28;20061;-50
2021/11/21 02:26:17;;;;;;;13.88;6.47;;;;;;;9.65;95.90;101280.78;5032178;28;20388;-45
2021/11/21 02:28:43;;;;;;;13.23;6.72;;;;;;;9.66;95.85;101274.41;5032280;28;20473;-46
2021/11/21 02:31:11;;;;;;;16.80;6.90;;;;;;;9.66;96.03;101267.19;5032182;28;20026;-45
2021/11/21 02:33:37;;;;;;;16.52;6.95;;;;;;;9.67;96.06;101268.03;5032167;28;20025;-44
2021/11/21 02:36:05;;;;;;;18.15;7.75;;;;;;;9.69;96.01;101266.03;5031929;28;20469;-43
2021/11/21 02:38:31;;;;;;;21.90;7.50;;;;;;;9.68;96.20;101253.56;5032271;28;20026;-43
2021/11/21 02:40:57;;;;;;;18.25;7.43;;;;;;;9.67;96.17;101260.81;5032139;28;20030;-43
2021/11/21 02:43:23;;;;;;;22.63;7.90;;;;;;;9.68;96.09;101256.25;5032111;28;20108;-42
2021/11/21 02:45:51;;;;;;;27.48;8.00;;;;;;;9.71;95.92;101252.41;5031871;28;20232;-43
2021/11/21 02:48:17;;;;;;;20.08;7.18;;;;;;;9.75;95.99;101243.84;5031838;28;20054;-42
2021/11/21 02:50:43;;;;;;;27.67;7.03;;;;;;;9.76;95.82;101239.31;5034721;28;20472;-46
2021/11/21 02:53:09;;;;;;;23.70;8.32;;;;;;;9.77;95.96;101231.09;5035610;28;20028;-46
2021/11/21 02:55:34;;;;;;;14.85;5.07;;;;;;;9.78;95.34;101238.13;5035262;28;20021;-44
2021/11/21 02:58:01;;;;;;;20.67;5.28;;;;;;;9.75;95.27;101227.72;5035310;28;20538;-45
2021/11/21 03:00:27;;;;;;;11.05;3.08;;;;;;;9.81;94.78;101240.47;5035413;28;20044;-44
2021/11/21 03:02:53;;;;;;;20.73;3.40;;;;;;;9.78;94.32;101232.75;5017379;28;20057;-43
2021/11/21 03:05:19;;;;;;;13.60;3.70;;;;;;;9.84;94.15;101220.50;5033840;28;20057;-43
2021/11/21 03:07:46;;;;;;;14.77;3.40;;;;;;;9.82;93.75;101223.38;5035059;28;20021;-44
2021/11/21 03:10:14;;;;;;;8.23;2.85;;;;;;;9.92;93.95;101238.47;5033694;28;20599;-47
2021/11/21 03:12:39;;;;;;;19.50;3.50;;;;;;;9.87;93.72;101230.91;5035161;28;20132;-44
2021/11/21 03:15:05;;;;;;;16.33;2.65;;;;;;;9.82;93.72;101234.13;5035361;28;20096;-45
2021/11/21 03:17:30;;;;;;;8.15;2.28;;;;;;;9.78;93.64;101232.75;5035497;28;20515;-42
2021/11/21 03:19:56;;;;;;;9.38;1.88;;;;;;;9.82;93.36;101226.06;5035522;28;20049;-42
2021/11/21 03:22:21;;;;;;;11.32;1.52;;;;;;;9.75;93.23;101225.03;5035625;28;20469;-43
2021/11/21 03:24:46;;;;;;;9.82;1.90;;;;;;;9.74;93.48;101223.38;5037834;28;20057;-44
2021/11/21 03:27:12;;;;;;;10.65;2.13;;;;;;;9.67;93.34;101216.97;5054120;28;20032;-45
2021/11/21 03:29:37;;;;;;;18.67;2.40;;;;;;;9.65;93.55;101221.66;5053418;28;20112;-47
2021/11/21 03:32:03;;;;;;;20.38;1.80;;;;;;;9.60;94.13;101221.31;5055207;28;20534;-44
2021/11/21 03:34:29;;;;;;;8.95;1.30;;;;;;;9.62;94.45;101233.59;5055121;28;20106;-42
2021/11/21 03:36:55;;;;;;;19.13;2.15;;;;;;;9.57;94.68;101235.09;5056077;28;20025;-42
2021/11/21 03:39:20;;;;;;;10.25;1.48;;;;;;;9.56;94.55;101238.78;5054665;28;20029;-45
2021/11/21 03:41:45;;;;;;;6.55;1.20;;;;;;;9.51;94.62;101230.38;5035686;28;20396;-45
2021/11/21 03:44:11;;;;;;;17.20;1.77;;;;;;;9.47;94.69;101234.41;5054226;28;20108;-45
2021/11/21 03:46:37;;;;;;;14.02;1.27;;;;;;;9.51;94.50;101230.38;5054068;28;20498;-45
2021/11/21 03:49:03;;;;;;;9.60;1.13;;;;;;;9.41;94.21;101236.75;5054113;28;20041;-45
2021/11/21 03:51:29;;;;;;;11.73;1.05;;;;;;;9.40;94.17;101237.75;5053869;28;20025;-43
2021/11/21 03:53:54;;;;;;;11.73;1.35;;;;;;;9.36;94.09;101233.69;5051839;28;20021;-42
2021/11/21 03:56:20;;;;;;;12.23;0.85;;;;;;;9.35;94.23;101234.72;5033972;28;20498;-41
2021/11/21 03:58:45;;;;;;;8.05;0.90;;;;;;;9.37;94.46;101235.41;5030806;28;20438;-41
2021/11/21 04:01:11;;;;;;;17.30;1.70;;;;;;;9.36;94.20;101232.88;5030607;28;20417;-42
2021/11/21 04:03:37;;;;;;;11.95;1.30;;;;;;;9.36;94.00;101225.66;5034379;28;20131;-40
2021/11/21 04:06:03;;;;;;;16.20;1.23;;;;;;;9.33;93.61;101234.03;5061576;28;20025;-41
2021/11/21 04:08:28;;;;;;;17.02;1.20;;;;;;;9.33;93.37;101231.34;5050514;28;20044;-39
2021/11/21 04:10:54;;;;;;;20.30;1.75;;;;;;;9.32;92.84;101227.00;5050639;28;20029;-43
2021/11/21 04:13:19;;;;;;;9.05;1.30;;;;;;;9.31;92.94;101240.56;5037863;28;20041;-39
2021/11/21 04:15:45;;;;;;;11.52;1.48;;;;;;;9.33;93.00;101231.34;5029424;28;20022;-41
2021/11/21 04:18:10;;;;;;;10.43;0.95;;;;;;;9.28;91.20;101232.84;5030543;28;20620;-41
2021/11/21 04:20:36;;;;;;;16.88;1.40;;;;;;;9.28;90.56;101231.00;5030522;28;20029;-41
2021/11/21 04:23:01;;;;;;;7.95;1.20;;;;;;;9.23;90.40;101238.72;5029138;28;20033;-40
2021/11/21 04:25:26;;;;;;;12.15;1.08;;;;;;;9.20;90.39;101239.88;5030250;28;20041;-39
2021/11/21 04:27:52;;;;;;;9.52;1.00;;;;;;;9.18;90.95;101241.03;5030253;28;20025;-40
2021/11/21 04:30:18;;;;;;;8.77;1.02;;;;;;;9.17;90.95;101244.75;5033333;28;20021;-41
2021/11/21 04:32:47;;;;;;;19.70;1.45;;;;;;;9.17;91.10;101240.19;5030389;28;20037;-43
2021/11/21 04:35:16;;;;;;;7.03;0.90;;;;;;;9.27;90.78;101239.22;5030181;28;20399;-43
2021/11/21 04:37:41;;;;;;;12.73;1.15;;;;;;;9.29;90.33;101237.22;5030056;28;20113;-42
2021/11/21 04:40:08;;;;;;;10.85;1.23;;;;;;;9.22;90.63;101242.41;5028697;28;20484;-42
2021/11/21 04:42:34;;;;;;;15.05;1.45;;;;;;;9.17;90.56;101240.19;5030028;28;20021;-41
2021/11/21 04:45:00;;;;;;;12.73;1.25;;;;;;;9.10;90.17;101239.16;5037017;28;20075;-42
2021/11/21 04:47:25;;;;;;;14.55;1.30;;;;;;;9.07;90.74;101239.50;5031834;28;20454;-42
2021/11/21 04:49:51;;;;;;;10.70;2.05;;;;;;;9.05;91.08;101240.66;5049984;28;20640;-40
2021/11/21 04:52:17;;;;;;;13.95;1.60;;;;;;;9.06;90.66;101236.97;5050099;28;20031;-40
2021/11/21 04:54:43;;;;;;;16.33;1.40;;;;;;;9.08;90.73;101229.59;5040988;28;20481;-41
2021/11/21 04:57:08;;;;;;;15.60;1.33;;;;;;;9.06;90.70;101231.59;5029950;28;20434;-39
2021/11/21 04:59:34;;;;;;;16.65;1.38;;;;;;;9.12;90.30;101237.16;5029655;28;20515;-40
2021/11/21 05:02:01;;;;;;;21.05;1.70;;;;;;;9.09;89.67;101236.66;5046441;28;20024;-41
2021/11/21 05:04:26;;;;;;;22.70;1.75;;;;;;;9.12;88.60;101236.31;5049914;28;20036;-41
2021/11/21 05:06:53;;;;;;;18.40;1.55;;;;;;;9.12;87.91;101236.31;5048418;28;20033;-41
2021/11/21 05:09:19;;;;;;;17.90;2.15;;;;;;;9.06;88.00;101231.59;5049853;28;20025;-40
2021/11/21 05:11:44;;;;;;;17.45;1.98;;;;;;;8.99;88.41;101232.25;5048488;28;20056;-41
2021/11/21 05:14:12;;;;;;;20.77;1.75;;;;;;;9.01;86.89;101234.78;5049921;28;20029;-41
2021/11/21 05:16:37;;;;;;;17.00;1.70;;;;;;;8.96;85.51;101232.56;5042678;28;20033;-39
2021/11/21 05:19:04;;;;;;;17.20;1.95;;;;;;;8.96;85.76;101221.84;5031772;28;20033;-40
2021/11/21 05:21:29;;;;;;;16.42;2.95;;;;;;;8.95;84.80;101227.34;5031795;28;20032;-39
2021/11/21 05:23:55;;;;;;;13.45;1.60;;;;;;;8.92;85.12;101225.84;5029874;28;20037;-42
2021/11/21 05:26:22;;;;;;;23.60;2.45;;;;;;;8.97;84.52;101223.50;5029712;28;20048;-39
2021/11/21 05:28:47;;;;;;;19.57;1.63;;;;;;;8.93;84.70;101227.53;5028563;28;20053;-40
2021/11/21 05:31:12;;;;;;;16.13;1.92;;;;;;;8.95;84.22;101225.53;5038246;28;20278;-40
2021/11/21 05:33:38;;;;;;;16.67;1.63;;;;;;;8.93;84.29;101226.69;5041137;28;20033;-40
2021/11/21 05:36:03;;;;;;;25.15;2.20;;;;;;;8.93;83.06;101227.53;5033866;28;20092;-40
2021/11/21 05:38:29;;;;;;;17.88;2.50;;;;;;;8.97;83.78;101218.13;5031192;28;20109;-40
2021/11/21 05:40:54;;;;;;;11.15;1.50;;;;;;;8.92;84.59;101225.84;5048297;28;20464;-41
2021/11/21 05:43:19;;;;;;;23.23;1.80;;;;;;;8.91;83.48;101224.16;5049292;28;20080;-42
2021/11/21 05:45:45;;;;;;;20.40;2.38;;;;;;;8.94;84.25;101223.84;5049409;28;20494;-41
2021/11/21 05:48:10;;;;;;;17.60;1.83;;;;;;;8.93;83.20;101227.53;5043319;28;20017;-40
2021/11/21 05:50:36;;;;;;;17.65;1.48;;;;;;;8.95;83.13;101225.53;5043237;28;20095;-41
2021/11/21 05:53:01;;;;;;;22.25;2.00;;;;;;;8.94;83.61;101229.22;5069557;28;20333;-41
2021/11/21 05:55:27;;;;;;;12.95;1.13;;;;;;;8.89;83.05;101219.97;5055737;28;20040;-40
2021/11/21 05:57:52;;;;;;;23.92;1.83;;;;;;;8.86;82.23;101218.44;5047899;28;20036;-41
2021/11/21 06:00:21;;;;;;;16.58;1.38;;;;;;;8.86;82.36;101222.97;5049260;28;20112;-41
2021/11/21 06:02:47;;;;;;;12.63;1.33;;;;;;;8.84;81.19;101215.06;5043187;28;20055;-40
2021/11/21 06:05:12;;;;;;;13.52;1.30;;;;;;;8.91;81.38;101226.00;5050590;28;20472;-41
2021/11/21 06:07:37;;;;;;;16.90;2.38;;;;;;;9.02;81.30;101226.56;5048940;28;20090;-41
2021/11/21 06:10:05;;;;;;;15.75;2.17;;;;;;;9.02;80.42;101237.28;5049163;28;20124;-40
2021/11/21 06:12:30;;;;;;;15.32;2.38;;;;;;;8.96;81.45;101239.78;5047778;28;20040;-40
2021/11/21 06:14:56;;;;;;;8.35;1.13;;;;;;;8.90;81.67;101235.06;5049179;28;20025;-40
2021/11/21 06:17:21;;;;;;;11.27;1.35;;;;;;;8.80;80.23;101243.25;5049121;28;20484;-43
2021/11/21 06:19:46;;;;;;;8.98;0.93;;;;;;;8.74;81.46;101233.13;5043471;28;20127;-43
2021/11/21 06:22:12;;;;;;;10.70;1.35;;;;;;;8.63;82.22;101236.94;5048826;28;20029;-44
2021/11/21 06:24:38;;;;;;;7.75;1.17;;;;;;;8.60;84.14;101231.06;5050349;28;20047;-44
2021/11/21 06:27:04;;;;;;;7.30;1.08;;;;;;;8.53;84.61;101231.72;5052333;28;20724;-43
2021/11/21 06:29:29;;;;;;;11.20;1.50;;;;;;;8.47;84.74;101232.31;5052599;28;20017;-43
2021/11/21 06:31:54;;;;;;;12.57;2.25;;;;;;;8.48;85.01;101231.34;5052772;28;20029;-43
2021/11/21 06:34:20;;;;;;;15.55;1.45;;;;;;;8.43;84.91;101230.13;5052749;28;20049;-43
2021/11/21 06:36:45;;;;;;;6.30;1.00;;;;;;;8.36;84.06;101219.16;5050345;28;20084;-42
2021/11/21 06:39:11;;;;;;;14.15;1.25;;;;;;;8.35;85.41;101223.69;5052554;28;20039;-42
2021/11/21 06:41:38;;;;;;;13.88;1.48;;;;;;;8.33;85.90;101230.22;5053396;28;20036;-40
2021/11/21 06:44:05;;;;;;;18.33;1.30;;;;;;;8.29;85.65;101223.47;5049345;28;20029;-40
2021/11/21 06:46:30;;;;;;;21.33;1.92;;;;;;;8.30;84.33;101230.53;5035953;28;20029;-40
2021/11/21 06:48:56;;;;;;;15.95;1.30;;;;;;;8.31;83.94;101226.84;5031031;28;20033;-41
2021/11/21 06:51:21;;;;;;;13.93;1.55;;;;;;;8.29;82.59;101228.81;5038122;28;20103;-41
2021/11/21 06:53:48;;;;;;;16.30;1.30;;;;;;;8.25;81.96;101222.94;5042197;28;20488;-40
2021/11/21 06:56:14;;;;;;;7.47;0.93;;;;;;;8.25;82.22;101224.78;5031119;28;20532;-40
2021/11/21 06:58:40;;;;;;;16.00;1.13;;;;;;;8.18;80.75;101234.44;5048049;28;20435;-40
2021/11/21 07:01:06;;;;;;;6.50;1.02;;;;;;;8.22;81.14;101230.47;5052384;28;20024;-41
2021/11/21 07:03:31;;;;;;;10.40;1.10;;;;;;;8.24;80.00;101232.00;5052210;28;20377;-41
2021/11/21 07:05:56;;;;;;;18.85;1.50;;;;;;;8.32;81.51;101236.56;5052040;28;20244;-41
2021/11/21 07:08:21;;;;;;;8.50;1.05;;;;;;;8.37;79.28;101236.91;5037995;28;20269;-39
2021/11/21 07:10:47;;;;;;;15.85;2.15;;;;;;;8.41;78.90;101238.34;5045461;28;20025;-40
2021/11/21 07:13:12;;;;;;;9.80;1.52;;;;;;;8.36;78.39;101241.44;5051961;28;20472;-40
2021/11/21 07:15:38;;;;;;;11.90;1.70;;;;;;;8.35;77.45;101238.94;5051947;28;20108;-39
2021/11/21 07:18:03;;;;;;;6.30;1.10;;;;;;;8.32;78.53;101250.81;5054487;28;20032;-41
2021/11/21 07:20:28;;;;;;;10.18;1.40;;;;;;;8.28;78.91;101254.81;5065132;28;20025;-41
2021/11/21 07:22:54;;;;;;;12.00;1.33;;;;;;;8.23;79.88;101256.28;5062219;28;20387;-43
2021/11/21 07:25:21;;;;;;;11.68;1.58;;;;;;;8.24;79.06;101263.31;5071559;28;20408;-43
2021/11/21 07:27:47;;;;;;;13.63;1.83;;;;;;;8.21;81.33;101260.94;5071708;28;20029;-39
2021/11/21 07:30:16;;;;;;;14.25;1.48;;;;;;;8.16;81.84;101263.25;5071603;28;20028;-40
2021/11/21 07:32:46;;;;;;;18.92;1.40;;;;;;;8.14;82.05;101271.47;5071374;28;20036;-40
2021/11/21 07:35:14;;;;;;;28.05;2.60;;;;;;;8.14;82.06;101266.09;5068964;28;20062;-41
2021/11/21 07:37:39;;;;;;;;;;;;;;;8.07;81.63;101268.56;5052326;28;20395;-42
2021/11/21 07:40:08;;;;;;;15.35;1.40;;;;;;;8.01;82.11;101274.53;5045707;28;19917;-41
2021/11/21 07:42:33;;;;;;;18.77;1.90;;;;;;;8.01;81.24;101262.97;5051520;28;20072;-40
2021/11/21 07:44:59;;;;;;;22.35;1.98;;;;;;;7.99;80.23;101260.44;5045585;28;20110;-41
2021/11/21 07:47:25;;;;;;;20.77;2.15;;;;;;;7.97;78.33;101267.78;5050083;28;20084;-41
2021/11/21 07:49:51;;;;;;;14.23;1.48;;;;;;;7.94;78.50;101268.09;5050676;28;20527;-41
2021/11/21 07:52:16;;;;;;;15.60;1.80;;;;;;;7.98;79.37;101271.31;5050224;28;20104;-41
2021/11/21 07:54:43;;;;;;;18.52;1.60;;;;;;;7.99;80.45;101276.53;5051061;28;20372;-41
2021/11/21 07:57:09;;;;;;;15.43;1.30;;;;;;;8.01;78.25;101269.19;5044953;28;20035;-41
2021/11/21 07:59:34;;;;;;;24.90;3.70;;;;;;;8.04;77.11;101268.03;5047241;28;20372;-40
2021/11/21 08:01:59;;;;;;;15.80;1.27;;;;;;;8.04;77.03;101279.59;5049751;28;20059;-41
2021/11/21 08:04:25;;;;;;;9.70;1.15;;;;;;;8.13;76.16;101278.66;5049099;28;20524;-41
2021/11/21 08:06:50;;;;;;;24.95;1.63;;;;;;;8.16;76.64;101284.69;5049444;28;20056;-40
2021/11/21 08:09:15;;;;;;;13.88;1.85;;;;;;;8.14;78.30;101287.56;5047595;28;20033;-40
2021/11/21 08:11:41;;;;;;;14.80;2.00;;;;;;;8.17;78.33;101289.91;5049252;28;20391;-40
2021/11/21 08:14:06;;;;;;;25.63;2.00;;;;;;;8.24;77.28;101292.81;5049144;28;20082;-40
2021/11/21 08:16:31;;;;;;;12.35;1.83;;;;;;;8.34;75.94;101283.66;5053143;28;20029;-41
2021/11/21 08:18:56;;;;;;;12.25;1.40;;;;;;;8.49;74.87;101292.03;5049302;28;20028;-41
2021/11/21 08:21:22;;;;;;;23.65;3.00;;;;;;;8.61;75.35;101291.75;5049080;28;20035;-41
2021/11/21 08:23:47;;;;;;;17.48;1.80;;;;;;;8.78;75.31;101289.03;5048824;28;20029;-40
2021/11/21 08:26:13;;;;;;;10.20;1.48;;;;;;;8.95;74.06;101291.78;5049002;28;20060;-41
2021/11/21 08:28:39;;;;;;;17.10;2.22;;;;;;;9.05;71.53;101286.31;5049010;28;20021;-42
2021/11/21 08:31:06;;;;;;;15.57;1.45;;;;;;;9.07;71.49;101295.03;5049318;28;20063;-40
2021/11/21 08:33:31;;;;;;;22.13;1.65;;;;;;;9.12;70.65;101295.41;5048940;28;20039;-41
2021/11/21 08:35:56;;;;;;;25.27;1.70;;;;;;;9.17;71.95;101290.38;5049036;28;20028;-40
2021/11/21 08:38:22;;;;;;;20.88;2.40;;;;;;;9.26;71.58;101299.31;5048764;28;20070;-40
2021/11/21 08:40:47;;;;;;;15.25;1.27;;;;;;;9.34;69.58;101300.16;5044547;28;20114;-41
2021/11/21 08:43:12;;;;;;;17.13;1.70;;;;;;;9.30;71.03;101288.09;5048583;28;20055;-41
2021/11/21 08:45:38;;;;;;;15.07;2.22;;;;;;;9.42;70.72;101296.69;5045296;28;20071;-40
2021/11/21 08:48:04;;;;;;;27.05;3.85;;;;;;;9.65;70.18;101291.53;5046457;28;20039;-40
2021/11/21 08:50:30;;;;;;;19.83;1.80;;;;;;;9.79;69.52;101298.94;5030967;28;20060;-40
2021/11/21 08:52:56;;;;;;;15.60;1.80;;;;;;;9.73;69.66;101288.84;5049208;28;20029;-41
2021/11/21 08:55:21;;;;;;;20.10;1.83;;;;;;;9.68;70.37;101288.50;5052948;28;20506;-40
2021/11/21 08:57:46;;;;;;;15.20;2.15;;;;;;;9.48;71.85;101295.19;5047739;28;20139;-41
2021/11/21 09:00:14;;;;;;;13.25;1.27;;;;;;;9.43;70.39;101293.84;5041446;28;20126;-40
2021/11/21 09:02:40;;;;;;;20.73;1.52;;;;;;;9.52;69.99;101301.91;5049812;28;20025;-42
2021/11/21 09:05:09;;;;;;;17.48;2.40;;;;;;;9.76;70.94;101304.66;5051772;28;20266;-40
2021/11/21 09:07:36;;;;;;;14.48;1.83;;;;;;;10.48;68.24;101298.69;5051647;28;20037;-40
2021/11/21 09:10:03;;;;;;;8.93;1.52;;;;;;;11.40;66.14;101299.91;5051964;28;20095;-40
2021/11/21 09:12:28;;;;;;;11.93;1.33;;;;;;;12.20;62.37;101301.41;5051296;28;20056;-41
2021/11/21 09:14:53;;;;;;;9.18;1.42;;;;;;;12.56;60.37;101299.91;5051984;28;20121;-41
2021/11/21 09:17:19;;;;;;;15.30;1.40;;;;;;;12.64;61.29;101308.78;5047710;28;20064;-42
2021/11/21 09:19:45;;;;;;;9.40;2.60;;;;;;;12.89;61.87;101300.41;5051593;28;20025;-41
2021/11/21 09:22:10;;;;;;;10.75;1.42;;;;;;;13.18;58.87;101304.97;5049742;28;20024;-41
2021/11/21 09:24:35;;;;;;;18.08;1.52;;;;;;;13.38;58.00;101295.28;5050531;28;20032;-41
2021/11/21 09:27:01;;;;;;;11.98;2.28;;;;;;;13.56;57.52;101310.25;5051021;28;20052;-41
2021/11/21 09:29:26;;;;;;;17.17;2.22;;;;;;;13.74;56.79;101299.84;5049756;28;20129;-41
2021/11/21 09:31:51;;;;;;;18.27;2.03;;;;;;;13.95;57.15;101306.31;5048296;28;20125;-41
2021/11/21 09:34:17;;;;;;;10.60;1.60;;;;;;;14.12;56.93;101310.44;5051018;28;20111;-41
2021/11/21 09:36:44;;;;;;;15.80;2.13;;;;;;;14.24;56.94;101318.88;5050251;28;20111;-41
2021/11/21 09:39:09;;;;;;;11.40;2.00;;;;;;;14.40;56.42;101317.75;5050879;28;20025;-41
2021/11/21 09:41:34;;;;;;;6.57;1.08;;;;;;;14.32;54.62;101304.34;5051473;28;20029;-41
2021/11/21 09:44:00;;;;;;;7.20;1.20;;;;;;;14.13;53.75;101314.81;5051448;28;20039;-41
2021/11/21 09:46:26;;;;;;;8.73;1.33;;;;;;;13.88;53.15;101319.78;5050982;28;20069;-41
2021/11/21 09:48:52;;;;;;;6.90;0.82;;;;;;;13.62;54.98;101323.03;5046222;28;20108;-42
2021/11/21 09:51:21;;;;;;;11.80;1.48;;;;;;;13.17;56.12;101314.94;5050760;28;20063;-42
2021/11/21 09:53:47;;;;;;;9.98;1.50;;;;;;;13.38;54.61;101324.19;5051506;28;20025;-41
2021/11/21 09:56:14;;;;;;;5.22;1.08;;;;;;;13.69;55.00;101312.25;5049424;28;20025;-41
2021/11/21 09:58:39;;;;;;;10.90;1.60;;;;;;;13.72;54.90;101320.84;5051986;28;20039;-41
2021/11/21 10:01:05;;;;;;;11.88;1.27;;;;;;;13.57;54.54;101318.19;5055235;28;20029;-43
2021/11/21 10:03:31;;;;;;;9.60;1.45;;;;;;;13.48;56.80;101313.94;5050636;28;20051;-42
2021/11/21 10:06:05;;;;;;;6.75;0.82;;;;;;;13.20;57.48;101318.31;5055280;28;20025;-41
2021/11/21 10:08:31;;;;;;;13.95;1.52;;;;;;;13.18;57.97;101318.47;5054470;28;20103;-40
2021/11/21 10:10:59;;;;;;;7.63;1.08;;;;;;;13.62;56.33;101328.44;5055416;28;20054;-40
2021/11/21 10:13:35;;;;;;;9.80;1.50;;;;;;;13.99;56.69;101330.09;5054325;28;20036;-41
2021/11/21 10:16:21;;;;;;;14.52;1.23;;;;;;;14.22;54.07;101319.06;5055025;28;20590;-42
2021/11/21 10:18:49;;;;;;;15.05;1.08;;;;;;;14.48;53.26;101317.59;5052984;28;20079;-40
2021/11/21 10:21:16;;;;;;;9.93;1.48;;;;;;;14.78;53.96;101329.13;5053065;28;20457;-43
2021/11/21 10:23:43;;;;;;;8.40;1.40;;;;;;;14.83;51.95;101329.38;5054899;28;20112;-41
2021/11/21 10:26:20;;;;;;;10.05;1.50;;;;;;;14.51;52.85;101333.50;5053731;28;20307;-40
2021/11/21 10:28:45;;;;;;;10.15;1.30;;;;;;;14.00;52.86;101333.63;5053298;28;20120;-41
2021/11/21 10:31:22;;;;;;;7.57;0.90;;;;;;;13.43;51.93;101323.59;5054507;28;20111;-40
2021/11/21 10:33:56;;;;;;;4.35;0.52;;;;;;;13.24;52.37;101317.72;5054903;28;20025;-40
2021/11/21 10:36:24;;;;;;;2.33;0.68;;;;;;;13.48;53.01;101332.00;5050578;28;20113;-41
2021/11/21 10:38:51;;;;;;;5.28;0.90;;;;;;;13.88;52.49;101324.34;5054732;28;20380;-40
2021/11/21 10:41:21;;;;;;;5.40;1.00;;;;;;;14.18;50.64;101325.06;5054084;28;20060;-40
2021/11/21 10:43:57;;;;;;;4.95;0.90;;;;;;;14.17;51.34;101324.22;5054095;28;20025;-41
2021/11/21 10:46:25;;;;;;;6.70;1.25;;;;;;;14.34;51.49;101327.50;5054092;28;20029;-40
2021/11/21 10:48:51;;;;;;;9.77;1.77;;;;;;;14.86;49.74;101314.59;5054291;28;20025;-40
2021/11/21 10:51:21;;;;;;;1.88;0.60;;;;;;;15.54;48.00;101323.69;5046518;28;20116;-40
2021/11/21 10:53:47;;;;;;;6.53;1.10;;;;;;;15.70;48.78;101316.28;5053743;28;20538;-41
2021/11/21 10:56:12;;;;;;;11.85;0.95;;;;;;;15.65;47.43;101319.56;5053679;28;20033;-41
2021/11/21 10:58:44;;;;;;;8.73;1.75;;;;;;;15.80;48.78;101322.16;5054159;28;20049;-41
2021/11/21 11:01:18;;;;;;;8.70;1.35;;;;;;;15.87;48.73;101319.44;5053453;28;20551;-41
2021/11/21 11:03:46;;;;;;;9.98;1.40;;;;;;;16.19;48.25;101318.69;5053866;28;20033;-41
2021/11/21 11:06:32;;;;;;;9.63;1.23;;;;;;;16.05;48.87;101316.97;5048293;28;20128;-42
2021/11/21 11:09:17;;;;;;;13.27;1.50;;;;;;;16.24;48.88;101320.75;5049715;28;20056;-41
2021/11/21 11:11:42;;;;;;;10.13;1.83;;;;;;;15.93;48.02;101311.31;5043990;28;20047;-41
2021/11/21 11:14:07;;;;;;;12.63;1.92;;;;;;;15.97;49.22;101312.56;5049206;28;20051;-41
2021/11/21 11:16:33;;;;;;;11.68;1.42;;;;;;;15.83;48.54;101316.31;5043091;28;20546;-41
2021/11/21 11:19:00;;;;;;;13.90;1.85;;;;;;;15.78;48.93;101307.94;5049272;28;20033;-42
2021/11/21 11:21:25;;;;;;;8.27;1.42;;;;;;;15.73;48.66;101305.00;5049124;28;20029;-40